sensor_id;sensor_type;location;lat;lon;timestamp;pressure;altitude;pressure_sealevel;temperature;humidity
64687;BME280;51113;53.646;-113.674;2023-07-08T00:00:29;93796.16;;;23.92;34.82
64687;BME280;51113;53.646;-113.674;2023-07-08T00:02:57;93803.69;;;23.90;35.34
64687;BME280;51113;53.646;-113.674;2023-07-08T00:05:26;93798.41;;;24.05;34.66
64687;BME280;51113;53.646;-113.674;2023-07-08T00:07:55;93801.41;;;24.04;34.52
64687;BME280;51113;53.646;-113.674;2023-07-08T00:10:26;93803.22;;;24.15;34.68
64687;BME280;51113;53.646;-113.674;2023-07-08T00:12:57;93791.66;;;24.08;34.29
64687;BME280;51113;53.646;-113.674;2023-07-08T00:15:30;93790.09;;;24.07;34.18
64687;BME280;51113;53.646;-113.674;2023-07-08T00:18:00;93791.03;;;23.99;34.38
64687;BME280;51113;53.646;-113.674;2023-07-08T00:20:41;93785.03;;;23.86;34.68
64687;BME280;51113;53.646;-113.674;2023-07-08T00:23:11;93786.91;;;23.86;34.66
64687;BME280;51113;53.646;-113.674;2023-07-08T00:25:41;93780.59;;;23.90;34.89
64687;BME280;51113;53.646;-113.674;2023-07-08T00:28:17;93776.81;;;23.91;34.74
64687;BME280;51113;53.646;-113.674;2023-07-08T00:30:46;93777.66;;;23.79;34.65
64687;BME280;51113;53.646;-113.674;2023-07-08T00:33:15;93778.03;;;23.94;35.12
64687;BME280;51113;53.646;-113.674;2023-07-08T00:35:45;93782.19;;;23.79;35.14
64687;BME280;51113;53.646;-113.674;2023-07-08T00:38:23;93775.88;;;23.83;34.99
64687;BME280;51113;53.646;-113.674;2023-07-08T00:41:14;93768.41;;;23.73;34.68
64687;BME280;51113;53.646;-113.674;2023-07-08T00:43:52;93773.19;;;23.68;34.81
64687;BME280;51113;53.646;-113.674;2023-07-08T00:49:14;93770.03;;;23.78;35.55
64687;BME280;51113;53.646;-113.674;2023-07-08T00:51:44;93770.78;;;23.63;36.00
64687;BME280;51113;53.646;-113.674;2023-07-08T00:54:14;93765.81;;;23.61;35.98
64687;BME280;51113;53.646;-113.674;2023-07-08T00:57:00;93758.47;;;23.70;35.87
64687;BME280;51113;53.646;-113.674;2023-07-08T00:59:35;93758.13;;;23.72;36.12
64687;BME280;51113;53.646;-113.674;2023-07-08T01:02:09;93753.31;;;23.62;36.23
64687;BME280;51113;53.646;-113.674;2023-07-08T01:07:32;93763.06;;;23.58;36.31
64687;BME280;51113;53.646;-113.674;2023-07-08T01:10:04;93761.88;;;23.43;36.69
64687;BME280;51113;53.646;-113.674;2023-07-08T01:12:37;93768.72;;;23.44;37.19
64687;BME280;51113;53.646;-113.674;2023-07-08T01:15:08;93766.69;;;23.53;37.41
64687;BME280;51113;53.646;-113.674;2023-07-08T01:17:38;93756.56;;;23.15;38.43
64687;BME280;51113;53.646;-113.674;2023-07-08T01:20:08;93765.50;;;23.23;38.89
64687;BME280;51113;53.646;-113.674;2023-07-08T01:22:44;93767.28;;;23.18;39.29
64687;BME280;51113;53.646;-113.674;2023-07-08T01:25:13;93759.31;;;23.18;39.51
64687;BME280;51113;53.646;-113.674;2023-07-08T01:27:45;93764.28;;;23.20;39.32
64687;BME280;51113;53.646;-113.674;2023-07-08T01:30:16;93762.75;;;23.19;39.72
64687;BME280;51113;53.646;-113.674;2023-07-08T01:32:55;93762.97;;;23.14;39.30
64687;BME280;51113;53.646;-113.674;2023-07-08T01:35:26;93757.72;;;23.02;39.87
64687;BME280;51113;53.646;-113.674;2023-07-08T01:37:59;93763.78;;;23.02;39.53
64687;BME280;51113;53.646;-113.674;2023-07-08T01:40:38;93761.06;;;22.86;40.07
64687;BME280;51113;53.646;-113.674;2023-07-08T01:43:10;93747.69;;;22.95;40.12
64687;BME280;51113;53.646;-113.674;2023-07-08T01:45:41;93752.31;;;22.98;39.70
64687;BME280;51113;53.646;-113.674;2023-07-08T01:48:13;93756.50;;;22.99;39.57
64687;BME280;51113;53.646;-113.674;2023-07-08T01:50:56;93747.47;;;22.88;39.48
64687;BME280;51113;53.646;-113.674;2023-07-08T01:53:31;93746.16;;;22.82;40.11
64687;BME280;51113;53.646;-113.674;2023-07-08T01:56:01;93745.72;;;22.80;40.16
64687;BME280;51113;53.646;-113.674;2023-07-08T01:58:31;93754.22;;;22.85;40.29
64687;BME280;51113;53.646;-113.674;2023-07-08T02:01:00;93738.53;;;22.68;40.04
64687;BME280;51113;53.646;-113.674;2023-07-08T02:03:29;93745.94;;;22.63;40.73
64687;BME280;51113;53.646;-113.674;2023-07-08T02:05:58;93749.69;;;22.62;41.15
64687;BME280;51113;53.646;-113.674;2023-07-08T02:08:27;93749.25;;;22.60;41.52
64687;BME280;51113;53.646;-113.674;2023-07-08T02:10:57;93747.06;;;22.37;41.15
64687;BME280;51113;53.646;-113.674;2023-07-08T02:13:26;93752.81;;;22.39;41.42
64687;BME280;51113;53.646;-113.674;2023-07-08T02:15:55;93753.47;;;22.36;41.41
64687;BME280;51113;53.646;-113.674;2023-07-08T02:18:25;93756.56;;;22.26;42.11
64687;BME280;51113;53.646;-113.674;2023-07-08T02:20:57;93760.19;;;22.21;41.94
64687;BME280;51113;53.646;-113.674;2023-07-08T02:23:26;93761.28;;;22.20;42.74
64687;BME280;51113;53.646;-113.674;2023-07-08T02:25:55;93757.66;;;22.13;43.29
64687;BME280;51113;53.646;-113.674;2023-07-08T02:28:24;93758.63;;;22.08;43.30
64687;BME280;51113;53.646;-113.674;2023-07-08T02:30:52;93761.72;;;22.10;43.27
64687;BME280;51113;53.646;-113.674;2023-07-08T02:33:21;93756.59;;;21.93;44.10
64687;BME280;51113;53.646;-113.674;2023-07-08T02:36:01;93752.41;;;21.92;43.72
64687;BME280;51113;53.646;-113.674;2023-07-08T02:38:29;93752.16;;;21.73;44.82
64687;BME280;51113;53.646;-113.674;2023-07-08T02:40:58;93752.28;;;21.76;45.17
64687;BME280;51113;53.646;-113.674;2023-07-08T02:43:27;93749.84;;;21.71;44.86
64687;BME280;51113;53.646;-113.674;2023-07-08T02:45:56;93756.44;;;21.65;44.46
64687;BME280;51113;53.646;-113.674;2023-07-08T02:48:24;93758.97;;;21.62;44.71
64687;BME280;51113;53.646;-113.674;2023-07-08T02:51:01;93764.44;;;21.56;44.49
64687;BME280;51113;53.646;-113.674;2023-07-08T02:53:31;93752.94;;;21.40;45.20
64687;BME280;51113;53.646;-113.674;2023-07-08T02:55:59;93765.72;;;21.38;45.12
64687;BME280;51113;53.646;-113.674;2023-07-08T02:58:28;93753.66;;;21.28;45.25
64687;BME280;51113;53.646;-113.674;2023-07-08T03:00:57;93753.59;;;21.16;45.56
64687;BME280;51113;53.646;-113.674;2023-07-08T03:03:29;93755.66;;;21.11;45.75
64687;BME280;51113;53.646;-113.674;2023-07-08T03:06:01;93750.56;;;21.06;45.92
64687;BME280;51113;53.646;-113.674;2023-07-08T03:08:30;93752.03;;;20.94;46.65
64687;BME280;51113;53.646;-113.674;2023-07-08T03:11:02;93755.19;;;20.88;46.88
64687;BME280;51113;53.646;-113.674;2023-07-08T03:13:31;93753.19;;;20.85;47.22
64687;BME280;51113;53.646;-113.674;2023-07-08T03:16:02;93761.38;;;20.71;47.33
64687;BME280;51113;53.646;-113.674;2023-07-08T03:18:30;93762.00;;;20.68;47.77
64687;BME280;51113;53.646;-113.674;2023-07-08T03:20:59;93766.84;;;20.66;47.88
64687;BME280;51113;53.646;-113.674;2023-07-08T03:23:28;93757.75;;;20.55;48.52
64687;BME280;51113;53.646;-113.674;2023-07-08T03:25:57;93766.16;;;20.48;48.86
64687;BME280;51113;53.646;-113.674;2023-07-08T03:28:25;93768.38;;;20.38;49.05
64687;BME280;51113;53.646;-113.674;2023-07-08T03:30:54;93767.78;;;20.32;49.24
64687;BME280;51113;53.646;-113.674;2023-07-08T03:33:23;93774.00;;;20.27;49.64
64687;BME280;51113;53.646;-113.674;2023-07-08T03:35:52;93770.41;;;20.32;49.11
64687;BME280;51113;53.646;-113.674;2023-07-08T03:38:21;93779.28;;;20.27;49.28
64687;BME280;51113;53.646;-113.674;2023-07-08T03:40:49;93777.31;;;20.16;49.82
64687;BME280;51113;53.646;-113.674;2023-07-08T03:43:18;93786.00;;;20.16;49.98
64687;BME280;51113;53.646;-113.674;2023-07-08T03:45:47;93788.03;;;20.11;50.35
64687;BME280;51113;53.646;-113.674;2023-07-08T03:48:16;93791.47;;;20.03;50.60
64687;BME280;51113;53.646;-113.674;2023-07-08T03:50:44;93792.28;;;19.94;50.81
64687;BME280;51113;53.646;-113.674;2023-07-08T03:53:13;93797.88;;;19.93;51.17
64687;BME280;51113;53.646;-113.674;2023-07-08T03:55:42;93794.78;;;19.82;51.77
64687;BME280;51113;53.646;-113.674;2023-07-08T03:58:10;93797.13;;;19.84;51.61
64687;BME280;51113;53.646;-113.674;2023-07-08T04:00:39;93794.97;;;19.77;51.98
64687;BME280;51113;53.646;-113.674;2023-07-08T04:03:10;93807.38;;;19.68;52.62
64687;BME280;51113;53.646;-113.674;2023-07-08T04:05:39;93801.19;;;19.64;52.47
64687;BME280;51113;53.646;-113.674;2023-07-08T04:08:08;93806.63;;;19.59;53.02
64687;BME280;51113;53.646;-113.674;2023-07-08T04:10:36;93805.22;;;19.53;53.79
64687;BME280;51113;53.646;-113.674;2023-07-08T04:13:05;93806.44;;;19.47;53.72
64687;BME280;51113;53.646;-113.674;2023-07-08T04:15:34;93802.56;;;19.44;53.71
64687;BME280;51113;53.646;-113.674;2023-07-08T04:18:02;93805.53;;;19.43;53.79
64687;BME280;51113;53.646;-113.674;2023-07-08T04:20:31;93807.38;;;19.33;54.05
64687;BME280;51113;53.646;-113.674;2023-07-08T04:23:00;93806.00;;;19.27;54.31
64687;BME280;51113;53.646;-113.674;2023-07-08T04:25:28;93799.94;;;19.27;54.61
64687;BME280;51113;53.646;-113.674;2023-07-08T04:27:57;93804.28;;;19.14;55.31
64687;BME280;51113;53.646;-113.674;2023-07-08T04:30:26;93806.28;;;19.09;55.25
64687;BME280;51113;53.646;-113.674;2023-07-08T04:32:54;93805.81;;;19.07;55.24
64687;BME280;51113;53.646;-113.674;2023-07-08T04:35:24;93799.94;;;19.01;55.67
64687;BME280;51113;53.646;-113.674;2023-07-08T04:37:52;93796.53;;;18.92;55.95
64687;BME280;51113;53.646;-113.674;2023-07-08T04:40:22;93794.50;;;18.89;55.88
64687;BME280;51113;53.646;-113.674;2023-07-08T04:42:51;93787.53;;;18.84;56.30
64687;BME280;51113;53.646;-113.674;2023-07-08T04:45:20;93795.88;;;18.78;56.54
64687;BME280;51113;53.646;-113.674;2023-07-08T04:47:49;93801.88;;;18.61;57.12
64687;BME280;51113;53.646;-113.674;2023-07-08T04:50:20;93801.88;;;18.61;57.13
64687;BME280;51113;53.646;-113.674;2023-07-08T04:52:49;93800.81;;;18.62;57.11
64687;BME280;51113;53.646;-113.674;2023-07-08T04:55:18;93806.53;;;18.64;57.27
64687;BME280;51113;53.646;-113.674;2023-07-08T04:57:47;93798.75;;;18.50;57.89
64687;BME280;51113;53.646;-113.674;2023-07-08T05:00:17;93796.72;;;18.47;57.84
64687;BME280;51113;53.646;-113.674;2023-07-08T05:02:47;93805.38;;;18.39;58.18
64687;BME280;51113;53.646;-113.674;2023-07-08T05:05:16;93801.31;;;18.33;58.13
64687;BME280;51113;53.646;-113.674;2023-07-08T05:07:45;93798.34;;;18.26;58.63
64687;BME280;51113;53.646;-113.674;2023-07-08T05:10:14;93791.25;;;18.26;58.43
64687;BME280;51113;53.646;-113.674;2023-07-08T05:12:44;93789.69;;;18.25;58.66
64687;BME280;51113;53.646;-113.674;2023-07-08T05:15:14;93790.16;;;18.27;58.35
64687;BME280;51113;53.646;-113.674;2023-07-08T05:17:43;93786.91;;;18.22;58.47
64687;BME280;51113;53.646;-113.674;2023-07-08T05:20:13;93782.25;;;18.19;58.64
64687;BME280;51113;53.646;-113.674;2023-07-08T05:22:43;93789.50;;;18.13;59.03
64687;BME280;51113;53.646;-113.674;2023-07-08T05:25:12;93783.28;;;18.09;59.32
64687;BME280;51113;53.646;-113.674;2023-07-08T05:27:41;93779.84;;;18.00;59.47
64687;BME280;51113;53.646;-113.674;2023-07-08T05:30:15;93785.88;;;18.00;59.54
64687;BME280;51113;53.646;-113.674;2023-07-08T05:32:45;93782.94;;;18.02;59.61
64687;BME280;51113;53.646;-113.674;2023-07-08T05:35:14;93773.59;;;17.87;59.69
64687;BME280;51113;53.646;-113.674;2023-07-08T05:37:42;93772.19;;;17.81;60.13
64687;BME280;51113;53.646;-113.674;2023-07-08T05:40:15;93770.13;;;17.69;60.42
64687;BME280;51113;53.646;-113.674;2023-07-08T05:42:44;93774.78;;;17.72;60.89
64687;BME280;51113;53.646;-113.674;2023-07-08T05:45:12;93771.66;;;17.70;60.74
64687;BME280;51113;53.646;-113.674;2023-07-08T05:47:41;93770.81;;;17.61;61.44
64687;BME280;51113;53.646;-113.674;2023-07-08T05:50:10;93771.13;;;17.60;61.43
64687;BME280;51113;53.646;-113.674;2023-07-08T05:52:38;93770.13;;;17.47;61.84
64687;BME280;51113;53.646;-113.674;2023-07-08T05:55:07;93765.59;;;17.39;62.53
64687;BME280;51113;53.646;-113.674;2023-07-08T05:57:36;93773.88;;;17.32;62.69
64687;BME280;51113;53.646;-113.674;2023-07-08T06:00:05;93769.53;;;17.28;62.66
64687;BME280;51113;53.646;-113.674;2023-07-08T06:02:34;93765.81;;;17.29;62.60
64687;BME280;51113;53.646;-113.674;2023-07-08T06:05:03;93769.53;;;17.28;62.68
64687;BME280;51113;53.646;-113.674;2023-07-08T06:07:32;93770.31;;;17.28;62.50
64687;BME280;51113;53.646;-113.674;2023-07-08T06:10:00;93771.84;;;17.29;62.45
64687;BME280;51113;53.646;-113.674;2023-07-08T06:12:29;93765.16;;;17.23;62.74
64687;BME280;51113;53.646;-113.674;2023-07-08T06:14:58;93768.22;;;17.17;63.93
64687;BME280;51113;53.646;-113.674;2023-07-08T06:17:27;93766.97;;;17.14;63.64
64687;BME280;51113;53.646;-113.674;2023-07-08T06:19:56;93767.25;;;17.13;63.40
64687;BME280;51113;53.646;-113.674;2023-07-08T06:22:25;93773.09;;;17.09;63.61
64687;BME280;51113;53.646;-113.674;2023-07-08T06:24:56;93775.25;;;17.07;63.79
64687;BME280;51113;53.646;-113.674;2023-07-08T06:27:25;93777.56;;;17.09;63.02
64687;BME280;51113;53.646;-113.674;2023-07-08T06:29:54;93774.47;;;17.07;63.38
64687;BME280;51113;53.646;-113.674;2023-07-08T06:32:22;93780.31;;;17.04;63.24
64687;BME280;51113;53.646;-113.674;2023-07-08T06:34:51;93768.38;;;16.98;63.32
64687;BME280;51113;53.646;-113.674;2023-07-08T06:37:20;93769.94;;;16.99;63.54
64687;BME280;51113;53.646;-113.674;2023-07-08T06:39:48;93766.75;;;16.88;63.81
64687;BME280;51113;53.646;-113.674;2023-07-08T06:42:17;93767.81;;;16.87;63.81
64687;BME280;51113;53.646;-113.674;2023-07-08T06:44:45;93774.78;;;16.69;64.92
64687;BME280;51113;53.646;-113.674;2023-07-08T06:47:20;93765.66;;;16.67;64.28
64687;BME280;51113;53.646;-113.674;2023-07-08T06:49:49;93759.88;;;16.78;64.00
64687;BME280;51113;53.646;-113.674;2023-07-08T06:52:18;93760.47;;;16.75;63.96
64687;BME280;51113;53.646;-113.674;2023-07-08T06:54:46;93762.63;;;16.73;64.09
64687;BME280;51113;53.646;-113.674;2023-07-08T06:57:15;93760.06;;;16.82;63.47
64687;BME280;51113;53.646;-113.674;2023-07-08T06:59:43;93758.81;;;16.79;63.72
64687;BME280;51113;53.646;-113.674;2023-07-08T07:02:12;93760.84;;;16.83;63.02
64687;BME280;51113;53.646;-113.674;2023-07-08T07:04:41;93761.63;;;16.83;62.74
64687;BME280;51113;53.646;-113.674;2023-07-08T07:07:10;93757.94;;;16.84;62.96
64687;BME280;51113;53.646;-113.674;2023-07-08T07:09:38;93758.81;;;16.79;62.72
64687;BME280;51113;53.646;-113.674;2023-07-08T07:12:07;93757.47;;;16.55;63.79
64687;BME280;51113;53.646;-113.674;2023-07-08T07:14:36;93762.47;;;16.29;65.66
64687;BME280;51113;53.646;-113.674;2023-07-08T07:17:07;93751.22;;;16.14;65.68
64687;BME280;51113;53.646;-113.674;2023-07-08T07:19:36;93760.63;;;15.88;67.74
64687;BME280;51113;53.646;-113.674;2023-07-08T07:22:05;93755.28;;;15.79;66.59
64687;BME280;51113;53.646;-113.674;2023-07-08T07:24:34;93752.25;;;15.59;68.06
64687;BME280;51113;53.646;-113.674;2023-07-08T07:27:03;93750.13;;;15.42;68.36
64687;BME280;51113;53.646;-113.674;2023-07-08T07:29:46;93743.59;;;15.26;68.99
64687;BME280;51113;53.646;-113.674;2023-07-08T07:32:17;93748.69;;;15.49;67.48
64687;BME280;51113;53.646;-113.674;2023-07-08T07:34:49;93745.16;;;15.27;68.83
64687;BME280;51113;53.646;-113.674;2023-07-08T07:37:20;93749.97;;;15.19;68.82
64687;BME280;51113;53.646;-113.674;2023-07-08T07:39:49;93743.13;;;15.24;67.96
64687;BME280;51113;53.646;-113.674;2023-07-08T07:42:19;93743.81;;;15.29;67.96
64687;BME280;51113;53.646;-113.674;2023-07-08T07:44:47;93737.22;;;15.32;67.22
64687;BME280;51113;53.646;-113.674;2023-07-08T07:47:16;93735.97;;;15.29;67.57
64687;BME280;51113;53.646;-113.674;2023-07-08T07:49:45;93738.56;;;15.29;68.14
64687;BME280;51113;53.646;-113.674;2023-07-08T07:52:13;93740.56;;;15.51;67.05
64687;BME280;51113;53.646;-113.674;2023-07-08T07:54:44;93724.19;;;15.13;69.26
64687;BME280;51113;53.646;-113.674;2023-07-08T07:57:12;93726.19;;;15.02;69.43
64687;BME280;51113;53.646;-113.674;2023-07-08T07:59:41;93734.19;;;14.92;69.50
64687;BME280;51113;53.646;-113.674;2023-07-08T08:02:09;93735.81;;;14.88;69.43
64687;BME280;51113;53.646;-113.674;2023-07-08T08:04:40;93727.59;;;14.95;68.89
64687;BME280;51113;53.646;-113.674;2023-07-08T08:07:08;93725.06;;;14.90;69.18
64687;BME280;51113;53.646;-113.674;2023-07-08T08:09:38;93726.34;;;14.73;70.21
64687;BME280;51113;53.646;-113.674;2023-07-08T08:12:08;93731.72;;;14.63;71.00
64687;BME280;51113;53.646;-113.674;2023-07-08T08:14:37;93729.25;;;14.53;71.43
64687;BME280;51113;53.646;-113.674;2023-07-08T08:17:06;93731.47;;;14.41;71.19
64687;BME280;51113;53.646;-113.674;2023-07-08T08:19:35;93735.84;;;14.27;72.08
64687;BME280;51113;53.646;-113.674;2023-07-08T08:22:04;93730.97;;;14.20;72.67
64687;BME280;51113;53.646;-113.674;2023-07-08T08:24:33;93732.91;;;14.09;72.28
64687;BME280;51113;53.646;-113.674;2023-07-08T08:27:02;93721.53;;;14.00;73.40
64687;BME280;51113;53.646;-113.674;2023-07-08T08:29:31;93727.72;;;13.85;73.45
64687;BME280;51113;53.646;-113.674;2023-07-08T08:32:00;93728.97;;;13.88;74.00
64687;BME280;51113;53.646;-113.674;2023-07-08T08:34:28;93728.03;;;13.79;73.50
64687;BME280;51113;53.646;-113.674;2023-07-08T08:37:00;93722.94;;;13.69;74.18
64687;BME280;51113;53.646;-113.674;2023-07-08T08:39:29;93722.16;;;13.68;74.64
64687;BME280;51113;53.646;-113.674;2023-07-08T08:41:58;93720.38;;;13.64;74.13
64687;BME280;51113;53.646;-113.674;2023-07-08T08:44:34;93723.25;;;13.62;74.98
64687;BME280;51113;53.646;-113.674;2023-07-08T08:49:52;93723.25;;;13.62;74.03
64687;BME280;51113;53.646;-113.674;2023-07-08T08:52:22;93730.13;;;13.53;74.54
64687;BME280;51113;53.646;-113.674;2023-07-08T08:54:51;93734.06;;;13.50;75.45
64687;BME280;51113;53.646;-113.674;2023-07-08T08:59:55;93726.03;;;13.47;75.08
64687;BME280;51113;53.646;-113.674;2023-07-08T09:02:41;93726.47;;;13.54;75.21
64687;BME280;51113;53.646;-113.674;2023-07-08T09:05:11;93723.91;;;13.49;74.78
64687;BME280;51113;53.646;-113.674;2023-07-08T09:13:32;93706.72;;;13.48;74.32
64687;BME280;51113;53.646;-113.674;2023-07-08T09:18:40;93716.59;;;13.51;74.83
64687;BME280;51113;53.646;-113.674;2023-07-08T09:21:20;93710.13;;;13.43;74.62
64687;BME280;51113;53.646;-113.674;2023-07-08T09:23:55;93709.91;;;13.40;75.24
64687;BME280;51113;53.646;-113.674;2023-07-08T09:26:30;93713.81;;;13.42;74.69
64687;BME280;51113;53.646;-113.674;2023-07-08T09:28:59;93704.97;;;13.38;75.44
64687;BME280;51113;53.646;-113.674;2023-07-08T09:31:30;93704.19;;;13.38;74.79
64687;BME280;51113;53.646;-113.674;2023-07-08T09:34:15;93700.25;;;13.40;75.00
64687;BME280;51113;53.646;-113.674;2023-07-08T09:36:47;93693.31;;;13.54;74.51
64687;BME280;51113;53.646;-113.674;2023-07-08T09:39:19;93693.16;;;13.46;74.94
64687;BME280;51113;53.646;-113.674;2023-07-08T09:41:49;93685.09;;;13.42;74.79
64687;BME280;51113;53.646;-113.674;2023-07-08T09:44:27;93699.94;;;13.47;74.64
64687;BME280;51113;53.646;-113.674;2023-07-08T09:46:58;93697.09;;;13.43;74.51
64687;BME280;51113;53.646;-113.674;2023-07-08T09:51:56;93692.16;;;13.42;74.39
64687;BME280;51113;53.646;-113.674;2023-07-08T09:54:26;93697.09;;;13.43;74.07
64687;BME280;51113;53.646;-113.674;2023-07-08T09:57:42;93701.03;;;13.41;74.90
64687;BME280;51113;53.646;-113.674;2023-07-08T09:59:52;93693.97;;;13.41;74.32
64687;BME280;51113;53.646;-113.674;2023-07-08T10:02:36;93691.38;;;13.41;73.96
64687;BME280;51113;53.646;-113.674;2023-07-08T10:05:22;93684.38;;;13.61;73.05
64687;BME280;51113;53.646;-113.674;2023-07-08T10:07:56;93686.06;;;13.51;73.37
64687;BME280;51113;53.646;-113.674;2023-07-08T10:10:35;93679.06;;;13.47;74.76
64687;BME280;51113;53.646;-113.674;2023-07-08T10:15:49;93674.78;;;13.32;75.07
64687;BME280;51113;53.646;-113.674;2023-07-08T10:18:28;93677.81;;;13.39;74.33
64687;BME280;51113;53.646;-113.674;2023-07-08T10:21:54;93670.09;;;13.29;74.20
64687;BME280;51113;53.646;-113.674;2023-07-08T10:24:26;93672.84;;;13.14;75.65
64687;BME280;51113;53.646;-113.674;2023-07-08T10:27:12;93658.09;;;12.99;76.04
64687;BME280;51113;53.646;-113.674;2023-07-08T10:32:36;93662.13;;;12.86;76.94
64687;BME280;51113;53.646;-113.674;2023-07-08T10:35:28;93660.06;;;12.83;76.75
64687;BME280;51113;53.646;-113.674;2023-07-08T10:43:24;93659.22;;;12.59;78.07
64687;BME280;51113;53.646;-113.674;2023-07-08T11:13:19;93653.13;;;12.35;79.27
64687;BME280;51113;53.646;-113.674;2023-07-08T11:18:58;93648.47;;;12.32;80.05
64687;BME280;51113;53.646;-113.674;2023-07-08T11:21:39;93647.41;;;12.33;79.60
64687;BME280;51113;53.646;-113.674;2023-07-08T11:27:08;93637.03;;;12.27;79.39
64687;BME280;51113;53.646;-113.674;2023-07-08T11:29:56;93635.69;;;12.35;79.99
64687;BME280;51113;53.646;-113.674;2023-07-08T11:32:28;93636.19;;;12.37;79.40
64687;BME280;51113;53.646;-113.674;2023-07-08T11:34:59;93647.84;;;12.45;79.60
64687;BME280;51113;53.646;-113.674;2023-07-08T11:37:30;93636.59;;;12.54;78.89
64687;BME280;51113;53.646;-113.674;2023-07-08T11:40:13;93642.03;;;12.58;78.03
64687;BME280;51113;53.646;-113.674;2023-07-08T11:42:49;93639.97;;;12.55;78.59
64687;BME280;51113;53.646;-113.674;2023-07-08T11:45:27;93635.81;;;12.54;78.86
64687;BME280;51113;53.646;-113.674;2023-07-08T11:50:38;93633.16;;;12.59;79.27
64687;BME280;51113;53.646;-113.674;2023-07-08T11:53:11;93637.81;;;12.62;78.61
64687;BME280;51113;53.646;-113.674;2023-07-08T12:01:28;93628.75;;;13.17;77.94
64687;BME280;51113;53.646;-113.674;2023-07-08T12:09:20;93626.53;;;13.53;77.65
64687;BME280;51113;53.646;-113.674;2023-07-08T12:11:59;93623.47;;;13.70;76.35
64687;BME280;51113;53.646;-113.674;2023-07-08T12:14:29;93626.09;;;13.89;75.80
64687;BME280;51113;53.646;-113.674;2023-07-08T12:16:59;93613.25;;;13.93;75.91
64687;BME280;51113;53.646;-113.674;2023-07-08T12:19:28;93616.25;;;14.05;75.42
64687;BME280;51113;53.646;-113.674;2023-07-08T12:22:01;93621.31;;;14.15;75.17
64687;BME280;51113;53.646;-113.674;2023-07-08T12:24:30;93625.69;;;14.19;75.26
64687;BME280;51113;53.646;-113.674;2023-07-08T12:26:59;93622.22;;;14.24;74.92
64687;BME280;51113;53.646;-113.674;2023-07-08T12:29:28;93618.78;;;14.29;74.95
64687;BME280;51113;53.646;-113.674;2023-07-08T12:31:58;93618.13;;;14.37;74.46
64687;BME280;51113;53.646;-113.674;2023-07-08T12:34:27;93624.34;;;14.41;74.48
64687;BME280;51113;53.646;-113.674;2023-07-08T12:36:55;93617.22;;;14.46;74.37
64687;BME280;51113;53.646;-113.674;2023-07-08T12:39:24;93616.66;;;14.49;74.67
64687;BME280;51113;53.646;-113.674;2023-07-08T12:41:52;93622.59;;;14.55;74.20
64687;BME280;51113;53.646;-113.674;2023-07-08T12:44:22;93612.06;;;14.60;73.77
64687;BME280;51113;53.646;-113.674;2023-07-08T12:46:53;93620.88;;;14.64;73.71
64687;BME280;51113;53.646;-113.674;2023-07-08T12:49:22;93618.66;;;14.71;73.68
64687;BME280;51113;53.646;-113.674;2023-07-08T12:51:55;93621.69;;;14.78;73.31
64687;BME280;51113;53.646;-113.674;2023-07-08T12:54:24;93611.44;;;14.82;73.07
64687;BME280;51113;53.646;-113.674;2023-07-08T12:56:54;93614.16;;;14.91;72.44
64687;BME280;51113;53.646;-113.674;2023-07-08T12:59:23;93615.34;;;14.98;72.17
64687;BME280;51113;53.646;-113.674;2023-07-08T13:01:52;93608.19;;;15.04;71.85
64687;BME280;51113;53.646;-113.674;2023-07-08T13:04:22;93607.31;;;15.08;71.90
64687;BME280;51113;53.646;-113.674;2023-07-08T13:06:51;93606.66;;;15.16;71.70
64687;BME280;51113;53.646;-113.674;2023-07-08T13:09:40;93604.63;;;15.27;70.99
64687;BME280;51113;53.646;-113.674;2023-07-08T13:12:19;93610.75;;;15.36;70.76
64687;BME280;51113;53.646;-113.674;2023-07-08T13:14:54;93605.59;;;15.45;70.23
64687;BME280;51113;53.646;-113.674;2023-07-08T13:17:25;93601.53;;;15.52;69.90
64687;BME280;51113;53.646;-113.674;2023-07-08T13:19:55;93606.59;;;15.63;68.81
64687;BME280;51113;53.646;-113.674;2023-07-08T13:22:25;93603.28;;;15.71;68.50
64687;BME280;51113;53.646;-113.674;2023-07-08T13:25:01;93604.63;;;15.82;68.43
64687;BME280;51113;53.646;-113.674;2023-07-08T13:27:31;93603.47;;;15.88;68.33
64687;BME280;51113;53.646;-113.674;2023-07-08T13:30:16;93598.00;;;15.98;68.23
64687;BME280;51113;53.646;-113.674;2023-07-08T13:32:51;93599.94;;;16.06;68.25
64687;BME280;51113;53.646;-113.674;2023-07-08T13:35:50;93600.19;;;16.19;67.56
64687;BME280;51113;53.646;-113.674;2023-07-08T13:38:22;93603.75;;;16.23;67.00
64687;BME280;51113;53.646;-113.674;2023-07-08T13:40:56;93603.84;;;16.31;66.43
64687;BME280;51113;53.646;-113.674;2023-07-08T13:43:29;93601.75;;;16.42;65.84
64687;BME280;51113;53.646;-113.674;2023-07-08T13:45:59;93597.34;;;16.51;65.11
64687;BME280;51113;53.646;-113.674;2023-07-08T13:48:40;93598.19;;;16.60;64.37
64687;BME280;51113;53.646;-113.674;2023-07-08T13:51:11;93596.41;;;16.69;64.74
64687;BME280;51113;53.646;-113.674;2023-07-08T13:53:52;93596.47;;;16.78;64.29
64687;BME280;51113;53.646;-113.674;2023-07-08T13:56:31;93603.00;;;16.89;63.75
64687;BME280;51113;53.646;-113.674;2023-07-08T13:59:09;93592.09;;;16.96;62.58
64687;BME280;51113;53.646;-113.674;2023-07-08T14:01:39;93601.69;;;17.00;61.37
64687;BME280;51113;53.646;-113.674;2023-07-08T14:04:12;93598.34;;;17.08;61.29
64687;BME280;51113;53.646;-113.674;2023-07-08T14:06:41;93599.75;;;17.15;61.84
64687;BME280;51113;53.646;-113.674;2023-07-08T14:09:16;93598.25;;;17.22;60.86
64687;BME280;51113;53.646;-113.674;2023-07-08T14:11:45;93602.88;;;17.25;60.42